sensor_id;sensor_type;location;lat;lon;timestamp;P1;durP1;ratioP1;P2;durP2;ratioP2
64210;SDS011;50528;48.514;14.394;2023-03-23T00:00:15;12.90;;;8.20;;
64210;SDS011;50528;48.514;14.394;2023-03-23T00:01:09;11.30;;;8.00;;
64210;SDS011;50528;48.514;14.394;2023-03-23T00:01:44;14.00;;;8.90;;
64210;SDS011;50528;48.514;14.394;2023-03-23T00:02:17;14.80;;;8.90;;
64210;SDS011;50528;48.514;14.394;2023-03-23T00:02:49;16.60;;;8.90;;
64210;SDS011;50528;48.514;14.394;2023-03-23T00:03:21;18.50;;;9.70;;
64210;SDS011;50528;48.514;14.394;2023-03-23T00:03:56;16.80;;;9.50;;
64210;SDS011;50528;48.514;14.394;2023-03-23T00:04:29;11.80;;;9.00;;
64210;SDS011;50528;48.514;14.394;2023-03-23T00:05:02;12.40;;;8.50;;
64210;SDS011;50528;48.514;14.394;2023-03-23T00:05:35;14.10;;;9.60;;
64210;SDS011;50528;48.514;14.394;2023-03-23T00:06:08;14.20;;;9.20;;
64210;SDS011;50528;48.514;14.394;2023-03-23T00:06:41;16.90;;;10.30;;
64210;SDS011;50528;48.514;14.394;2023-03-23T00:07:14;14.70;;;9.60;;
64210;SDS011;50528;48.514;14.394;2023-03-23T00:07:53;13.90;;;9.30;;
64210;SDS011;50528;48.514;14.394;2023-03-23T00:08:27;13.20;;;8.90;;
64210;SDS011;50528;48.514;14.394;2023-03-23T00:08:59;15.30;;;9.30;;
64210;SDS011;50528;48.514;14.394;2023-03-23T00:09:33;13.60;;;9.60;;
64210;SDS011;50528;48.514;14.394;2023-03-23T00:10:06;13.20;;;9.00;;
64210;SDS011;50528;48.514;14.394;2023-03-23T00:10:38;13.40;;;9.30;;
64210;SDS011;50528;48.514;14.394;2023-03-23T00:11:15;17.30;;;9.50;;
64210;SDS011;50528;48.514;14.394;2023-03-23T00:11:50;17.40;;;9.30;;
64210;SDS011;50528;48.514;14.394;2023-03-23T00:12:24;14.20;;;9.00;;
64210;SDS011;50528;48.514;14.394;2023-03-23T00:13:04;12.30;;;8.80;;
64210;SDS011;50528;48.514;14.394;2023-03-23T00:13:37;13.50;;;8.90;;
64210;SDS011;50528;48.514;14.394;2023-03-23T00:14:10;14.70;;;8.80;;
64210;SDS011;50528;48.514;14.394;2023-03-23T00:14:45;14.80;;;9.00;;
64210;SDS011;50528;48.514;14.394;2023-03-23T00:15:17;15.50;;;9.10;;
64210;SDS011;50528;48.514;14.394;2023-03-23T00:15:50;13.20;;;8.80;;
64210;SDS011;50528;48.514;14.394;2023-03-23T00:16:24;14.40;;;9.20;;
64210;SDS011;50528;48.514;14.394;2023-03-23T00:17:11;13.40;;;9.00;;
64210;SDS011;50528;48.514;14.394;2023-03-23T00:17:46;13.00;;;9.10;;
64210;SDS011;50528;48.514;14.394;2023-03-23T00:18:19;12.80;;;8.90;;
64210;SDS011;50528;48.514;14.394;2023-03-23T00:18:56;15.80;;;9.20;;
64210;SDS011;50528;48.514;14.394;2023-03-23T00:19:29;15.60;;;9.30;;
64210;SDS011;50528;48.514;14.394;2023-03-23T00:20:02;12.80;;;8.90;;
64210;SDS011;50528;48.514;14.394;2023-03-23T00:20:45;16.40;;;10.00;;
64210;SDS011;50528;48.514;14.394;2023-03-23T00:21:22;18.00;;;9.50;;
64210;SDS011;50528;48.514;14.394;2023-03-23T00:22:05;14.90;;;9.70;;
64210;SDS011;50528;48.514;14.394;2023-03-23T00:22:38;13.30;;;9.10;;
64210;SDS011;50528;48.514;14.394;2023-03-23T00:23:10;15.90;;;9.30;;
64210;SDS011;50528;48.514;14.394;2023-03-23T00:23:43;15.90;;;9.40;;
64210;SDS011;50528;48.514;14.394;2023-03-23T00:24:18;14.60;;;9.20;;
64210;SDS011;50528;48.514;14.394;2023-03-23T00:24:51;16.30;;;9.80;;
64210;SDS011;50528;48.514;14.394;2023-03-23T00:25:23;13.20;;;9.00;;
64210;SDS011;50528;48.514;14.394;2023-03-23T00:25:56;15.00;;;9.40;;
64210;SDS011;50528;48.514;14.394;2023-03-23T00:26:28;14.30;;;9.50;;
64210;SDS011;50528;48.514;14.394;2023-03-23T00:27:05;14.40;;;9.00;;
64210;SDS011;50528;48.514;14.394;2023-03-23T00:27:37;14.50;;;8.80;;
64210;SDS011;50528;48.514;14.394;2023-03-23T00:28:10;14.90;;;8.90;;
64210;SDS011;50528;48.514;14.394;2023-03-23T00:28:44;13.60;;;8.70;;
64210;SDS011;50528;48.514;14.394;2023-03-23T00:29:19;13.40;;;8.30;;
64210;SDS011;50528;48.514;14.394;2023-03-23T00:29:56;12.90;;;8.40;;
64210;SDS011;50528;48.514;14.394;2023-03-23T00:30:29;12.00;;;7.90;;
64210;SDS011;50528;48.514;14.394;2023-03-23T00:31:02;14.00;;;8.60;;
64210;SDS011;50528;48.514;14.394;2023-03-23T00:31:40;13.20;;;8.10;;
64210;SDS011;50528;48.514;14.394;2023-03-23T00:32:19;13.00;;;8.60;;
64210;SDS011;50528;48.514;14.394;2023-03-23T00:33:00;14.50;;;9.10;;
64210;SDS011;50528;48.514;14.394;2023-03-23T00:33:37;18.00;;;9.00;;
64210;SDS011;50528;48.514;14.394;2023-03-23T00:34:14;12.70;;;8.50;;
64210;SDS011;50528;48.514;14.394;2023-03-23T00:34:51;12.40;;;8.20;;
64210;SDS011;50528;48.514;14.394;2023-03-23T00:35:24;13.20;;;8.70;;
64210;SDS011;50528;48.514;14.394;2023-03-23T00:35:56;15.00;;;8.50;;
64210;SDS011;50528;48.514;14.394;2023-03-23T00:36:32;12.30;;;8.20;;
64210;SDS011;50528;48.514;14.394;2023-03-23T00:37:10;15.60;;;8.30;;
64210;SDS011;50528;48.514;14.394;2023-03-23T00:37:43;15.50;;;8.50;;
64210;SDS011;50528;48.514;14.394;2023-03-23T00:38:15;12.70;;;8.30;;
64210;SDS011;50528;48.514;14.394;2023-03-23T00:38:48;14.30;;;8.50;;
64210;SDS011;50528;48.514;14.394;2023-03-23T00:39:20;13.90;;;8.20;;
64210;SDS011;50528;48.514;14.394;2023-03-23T00:39:56;11.70;;;8.00;;
64210;SDS011;50528;48.514;14.394;2023-03-23T00:40:29;12.20;;;8.50;;
64210;SDS011;50528;48.514;14.394;2023-03-23T00:41:02;12.50;;;7.60;;
64210;SDS011;50528;48.514;14.394;2023-03-23T00:41:34;14.80;;;8.60;;
64210;SDS011;50528;48.514;14.394;2023-03-23T00:42:08;12.20;;;8.00;;
64210;SDS011;50528;48.514;14.394;2023-03-23T00:42:40;13.00;;;8.30;;
64210;SDS011;50528;48.514;14.394;2023-03-23T00:43:13;12.60;;;8.00;;
64210;SDS011;50528;48.514;14.394;2023-03-23T00:43:49;15.00;;;7.80;;
64210;SDS011;50528;48.514;14.394;2023-03-23T00:44:23;13.70;;;7.80;;
64210;SDS011;50528;48.514;14.394;2023-03-23T00:44:55;13.70;;;8.00;;
64210;SDS011;50528;48.514;14.394;2023-03-23T00:45:31;11.60;;;7.90;;
64210;SDS011;50528;48.514;14.394;2023-03-23T00:46:06;11.20;;;8.10;;
64210;SDS011;50528;48.514;14.394;2023-03-23T00:46:41;12.40;;;7.70;;
64210;SDS011;50528;48.514;14.394;2023-03-23T00:47:16;11.80;;;7.70;;
64210;SDS011;50528;48.514;14.394;2023-03-23T00:47:49;13.80;;;9.00;;
64210;SDS011;50528;48.514;14.394;2023-03-23T00:48:23;14.60;;;8.20;;
64210;SDS011;50528;48.514;14.394;2023-03-23T00:48:57;12.70;;;7.90;;
64210;SDS011;50528;48.514;14.394;2023-03-23T00:49:29;14.10;;;8.10;;
64210;SDS011;50528;48.514;14.394;2023-03-23T00:50:02;10.80;;;7.40;;
64210;SDS011;50528;48.514;14.394;2023-03-23T00:50:36;12.10;;;7.90;;
64210;SDS011;50528;48.514;14.394;2023-03-23T00:51:09;12.10;;;7.70;;
64210;SDS011;50528;48.514;14.394;2023-03-23T00:51:43;11.70;;;7.50;;
64210;SDS011;50528;48.514;14.394;2023-03-23T00:52:16;11.30;;;8.20;;
64210;SDS011;50528;48.514;14.394;2023-03-23T00:52:48;12.30;;;8.20;;
64210;SDS011;50528;48.514;14.394;2023-03-23T00:53:24;13.30;;;7.90;;
64210;SDS011;50528;48.514;14.394;2023-03-23T00:53:56;13.20;;;8.20;;
64210;SDS011;50528;48.514;14.394;2023-03-23T00:54:29;12.40;;;8.20;;
64210;SDS011;50528;48.514;14.394;2023-03-23T00:55:02;13.20;;;8.20;;
64210;SDS011;50528;48.514;14.394;2023-03-23T00:55:34;13.70;;;8.30;;
64210;SDS011;50528;48.514;14.394;2023-03-23T00:56:07;13.80;;;8.70;;
64210;SDS011;50528;48.514;14.394;2023-03-23T00:56:41;13.80;;;8.60;;
64210;SDS011;50528;48.514;14.394;2023-03-23T00:57:13;14.00;;;8.90;;
64210;SDS011;50528;48.514;14.394;2023-03-23T00:57:45;17.00;;;9.00;;
64210;SDS011;50528;48.514;14.394;2023-03-23T00:58:17;15.40;;;8.80;;
64210;SDS011;50528;48.514;14.394;2023-03-23T00:58:50;14.60;;;8.80;;
64210;SDS011;50528;48.514;14.394;2023-03-23T00:59:22;14.70;;;9.10;;
64210;SDS011;50528;48.514;14.394;2023-03-23T00:59:56;15.80;;;9.10;;
64210;SDS011;50528;48.514;14.394;2023-03-23T01:00:28;13.80;;;8.70;;
64210;SDS011;50528;48.514;14.394;2023-03-23T01:01:02;14.30;;;9.10;;
64210;SDS011;50528;48.514;14.394;2023-03-23T01:01:35;13.40;;;8.60;;
64210;SDS011;50528;48.514;14.394;2023-03-23T01:02:08;12.30;;;8.20;;
64210;SDS011;50528;48.514;14.394;2023-03-23T01:02:40;13.60;;;7.60;;
64210;SDS011;50528;48.514;14.394;2023-03-23T01:03:16;13.20;;;7.60;;
64210;SDS011;50528;48.514;14.394;2023-03-23T01:03:50;10.50;;;6.80;;
64210;SDS011;50528;48.514;14.394;2023-03-23T01:04:22;11.00;;;7.10;;
64210;SDS011;50528;48.514;14.394;2023-03-23T01:04:54;11.90;;;6.90;;
64210;SDS011;50528;48.514;14.394;2023-03-23T01:05:28;12.20;;;6.80;;
64210;SDS011;50528;48.514;14.394;2023-03-23T01:06:04;12.40;;;7.30;;
64210;SDS011;50528;48.514;14.394;2023-03-23T01:06:48;12.20;;;7.40;;
64210;SDS011;50528;48.514;14.394;2023-03-23T01:07:26;13.20;;;7.50;;
64210;SDS011;50528;48.514;14.394;2023-03-23T01:08:00;10.10;;;6.90;;
64210;SDS011;50528;48.514;14.394;2023-03-23T01:08:36;12.10;;;7.20;;
64210;SDS011;50528;48.514;14.394;2023-03-23T01:09:12;11.90;;;7.10;;
64210;SDS011;50528;48.514;14.394;2023-03-23T01:09:49;9.90;;;7.30;;
64210;SDS011;50528;48.514;14.394;2023-03-23T01:10:25;10.60;;;6.80;;
64210;SDS011;50528;48.514;14.394;2023-03-23T01:11:04;11.30;;;7.10;;
64210;SDS011;50528;48.514;14.394;2023-03-23T01:11:38;8.80;;;6.70;;
64210;SDS011;50528;48.514;14.394;2023-03-23T01:12:10;12.40;;;7.00;;
64210;SDS011;50528;48.514;14.394;2023-03-23T01:12:45;11.10;;;7.30;;
64210;SDS011;50528;48.514;14.394;2023-03-23T01:13:20;10.00;;;7.20;;
64210;SDS011;50528;48.514;14.394;2023-03-23T01:13:57;10.30;;;7.10;;
64210;SDS011;50528;48.514;14.394;2023-03-23T01:14:32;11.20;;;7.70;;
64210;SDS011;50528;48.514;14.394;2023-03-23T01:15:07;12.70;;;7.60;;
64210;SDS011;50528;48.514;14.394;2023-03-23T01:15:40;11.80;;;7.70;;
64210;SDS011;50528;48.514;14.394;2023-03-23T01:16:13;10.20;;;7.40;;
64210;SDS011;50528;48.514;14.394;2023-03-23T01:16:46;12.10;;;7.90;;
64210;SDS011;50528;48.514;14.394;2023-03-23T01:17:19;10.10;;;7.10;;
64210;SDS011;50528;48.514;14.394;2023-03-23T01:17:53;10.90;;;7.40;;
64210;SDS011;50528;48.514;14.394;2023-03-23T01:18:25;13.90;;;7.40;;
64210;SDS011;50528;48.514;14.394;2023-03-23T01:18:58;13.30;;;8.10;;
64210;SDS011;50528;48.514;14.394;2023-03-23T01:19:30;14.50;;;8.10;;
64210;SDS011;50528;48.514;14.394;2023-03-23T01:20:02;12.20;;;7.50;;
64210;SDS011;50528;48.514;14.394;2023-03-23T01:20:41;12.30;;;8.10;;
64210;SDS011;50528;48.514;14.394;2023-03-23T01:21:15;12.90;;;8.30;;
64210;SDS011;50528;48.514;14.394;2023-03-23T01:21:50;15.00;;;7.90;;
64210;SDS011;50528;48.514;14.394;2023-03-23T01:22:22;12.00;;;7.70;;
64210;SDS011;50528;48.514;14.394;2023-03-23T01:22:55;12.10;;;8.30;;
64210;SDS011;50528;48.514;14.394;2023-03-23T01:23:32;12.00;;;8.00;;
64210;SDS011;50528;48.514;14.394;2023-03-23T01:24:06;15.80;;;8.00;;
64210;SDS011;50528;48.514;14.394;2023-03-23T01:24:39;13.40;;;8.00;;
64210;SDS011;50528;48.514;14.394;2023-03-23T01:25:11;13.90;;;8.20;;
64210;SDS011;50528;48.514;14.394;2023-03-23T01:25:45;12.50;;;7.90;;
64210;SDS011;50528;48.514;14.394;2023-03-23T01:26:19;11.70;;;7.90;;
64210;SDS011;50528;48.514;14.394;2023-03-23T01:26:54;13.50;;;7.40;;
64210;SDS011;50528;48.514;14.394;2023-03-23T01:27:27;12.50;;;7.80;;
64210;SDS011;50528;48.514;14.394;2023-03-23T01:27:59;12.30;;;7.30;;
64210;SDS011;50528;48.514;14.394;2023-03-23T01:28:32;13.80;;;8.00;;
64210;SDS011;50528;48.514;14.394;2023-03-23T01:29:06;10.40;;;7.10;;
64210;SDS011;50528;48.514;14.394;2023-03-23T01:29:40;12.00;;;8.00;;
64210;SDS011;50528;48.514;14.394;2023-03-23T01:30:13;11.30;;;8.10;;
64210;SDS011;50528;48.514;14.394;2023-03-23T01:30:48;11.80;;;8.20;;
64210;SDS011;50528;48.514;14.394;2023-03-23T01:31:22;13.00;;;8.60;;
64210;SDS011;50528;48.514;14.394;2023-03-23T01:31:56;13.00;;;8.40;;
64210;SDS011;50528;48.514;14.394;2023-03-23T01:32:29;12.00;;;8.40;;
64210;SDS011;50528;48.514;14.394;2023-03-23T01:33:01;14.80;;;8.70;;
64210;SDS011;50528;48.514;14.394;2023-03-23T01:33:34;13.80;;;8.70;;
64210;SDS011;50528;48.514;14.394;2023-03-23T01:34:06;14.30;;;9.20;;
64210;SDS011;50528;48.514;14.394;2023-03-23T01:34:40;15.80;;;9.40;;
64210;SDS011;50528;48.514;14.394;2023-03-23T01:35:13;14.80;;;9.20;;
64210;SDS011;50528;48.514;14.394;2023-03-23T01:35:45;14.30;;;9.10;;
64210;SDS011;50528;48.514;14.394;2023-03-23T01:36:19;14.40;;;9.40;;
64210;SDS011;50528;48.514;14.394;2023-03-23T01:36:59;16.50;;;9.60;;
64210;SDS011;50528;48.514;14.394;2023-03-23T01:37:32;14.90;;;9.40;;
64210;SDS011;50528;48.514;14.394;2023-03-23T01:38:06;13.40;;;8.50;;
64210;SDS011;50528;48.514;14.394;2023-03-23T01:38:39;13.60;;;9.00;;
64210;SDS011;50528;48.514;14.394;2023-03-23T01:39:12;14.50;;;8.90;;
64210;SDS011;50528;48.514;14.394;2023-03-23T01:39:45;18.80;;;9.00;;
64210;SDS011;50528;48.514;14.394;2023-03-23T01:40:17;15.20;;;9.10;;
64210;SDS011;50528;48.514;14.394;2023-03-23T01:40:50;14.40;;;9.10;;
64210;SDS011;50528;48.514;14.394;2023-03-23T01:41:34;16.60;;;9.00;;
64210;SDS011;50528;48.514;14.394;2023-03-23T01:42:16;14.00;;;8.50;;
64210;SDS011;50528;48.514;14.394;2023-03-23T01:42:49;14.50;;;9.00;;
64210;SDS011;50528;48.514;14.394;2023-03-23T01:43:22;15.10;;;9.10;;
64210;SDS011;50528;48.514;14.394;2023-03-23T01:44:08;15.80;;;8.60;;
64210;SDS011;50528;48.514;14.394;2023-03-23T01:45:26;13.70;;;8.10;;
64210;SDS011;50528;48.514;14.394;2023-03-23T01:46:03;17.20;;;9.60;;
64210;SDS011;50528;48.514;14.394;2023-03-23T01:46:35;15.40;;;8.90;;
64210;SDS011;50528;48.514;14.394;2023-03-23T01:47:08;17.00;;;8.60;;
64210;SDS011;50528;48.514;14.394;2023-03-23T01:47:42;16.10;;;9.30;;
64210;SDS011;50528;48.514;14.394;2023-03-23T01:49:21;17.10;;;9.10;;
64210;SDS011;50528;48.514;14.394;2023-03-23T01:49:58;19.40;;;10.30;;
64210;SDS011;50528;48.514;14.394;2023-03-23T01:50:32;15.90;;;9.50;;
64210;SDS011;50528;48.514;14.394;2023-03-23T01:51:11;19.00;;;9.60;;
64210;SDS011;50528;48.514;14.394;2023-03-23T01:51:57;17.90;;;9.60;;
64210;SDS011;50528;48.514;14.394;2023-03-23T01:52:34;16.20;;;8.90;;
64210;SDS011;50528;48.514;14.394;2023-03-23T01:53:08;14.90;;;9.00;;
64210;SDS011;50528;48.514;14.394;2023-03-23T01:53:45;17.50;;;8.60;;
64210;SDS011;50528;48.514;14.394;2023-03-23T01:54:20;14.90;;;9.40;;
64210;SDS011;50528;48.514;14.394;2023-03-23T01:54:54;16.30;;;9.80;;
64210;SDS011;50528;48.514;14.394;2023-03-23T01:55:29;14.50;;;8.90;;
64210;SDS011;50528;48.514;14.394;2023-03-23T01:56:02;19.00;;;9.20;;
64210;SDS011;50528;48.514;14.394;2023-03-23T01:56:39;15.60;;;9.50;;
64210;SDS011;50528;48.514;14.394;2023-03-23T01:57:17;17.90;;;9.10;;
64210;SDS011;50528;48.514;14.394;2023-03-23T01:57:54;17.80;;;9.30;;
64210;SDS011;50528;48.514;14.394;2023-03-23T01:58:29;17.10;;;9.10;;
64210;SDS011;50528;48.514;14.394;2023-03-23T01:59:04;15.70;;;9.20;;
64210;SDS011;50528;48.514;14.394;2023-03-23T01:59:37;15.70;;;9.20;;
64210;SDS011;50528;48.514;14.394;2023-03-23T02:00:23;13.20;;;8.90;;
64210;SDS011;50528;48.514;14.394;2023-03-23T02:00:58;15.80;;;9.50;;
64210;SDS011;50528;48.514;14.394;2023-03-23T02:01:36;17.10;;;10.00;;
64210;SDS011;50528;48.514;14.394;2023-03-23T02:02:12;15.60;;;9.30;;
64210;SDS011;50528;48.514;14.394;2023-03-23T02:02:46;17.00;;;8.70;;
64210;SDS011;50528;48.514;14.394;2023-03-23T02:03:21;15.00;;;8.70;;
64210;SDS011;50528;48.514;14.394;2023-03-23T02:03:55;14.70;;;8.80;;
64210;SDS011;50528;48.514;14.394;2023-03-23T02:04:29;19.00;;;9.40;;
64210;SDS011;50528;48.514;14.394;2023-03-23T02:05:04;14.60;;;8.80;;
64210;SDS011;50528;48.514;14.394;2023-03-23T02:05:43;14.50;;;8.10;;
64210;SDS011;50528;48.514;14.394;2023-03-23T02:06:20;14.60;;;8.50;;
64210;SDS011;50528;48.514;14.394;2023-03-23T02:08:24;15.60;;;9.30;;
64210;SDS011;50528;48.514;14.394;2023-03-23T02:08:59;15.50;;;9.10;;
64210;SDS011;50528;48.514;14.394;2023-03-23T02:09:34;16.30;;;8.80;;
64210;SDS011;50528;48.514;14.394;2023-03-23T02:10:07;15.40;;;9.30;;
64210;SDS011;50528;48.514;14.394;2023-03-23T02:10:40;18.30;;;9.60;;
64210;SDS011;50528;48.514;14.394;2023-03-23T02:11:16;17.40;;;9.20;;
64210;SDS011;50528;48.514;14.394;2023-03-23T02:11:51;16.10;;;8.80;;
64210;SDS011;50528;48.514;14.394;2023-03-23T02:12:25;17.10;;;9.80;;
64210;SDS011;50528;48.514;14.394;2023-03-23T02:12:58;15.60;;;9.20;;
64210;SDS011;50528;48.514;14.394;2023-03-23T02:13:34;18.60;;;9.80;;
64210;SDS011;50528;48.514;14.394;2023-03-23T02:14:06;15.90;;;9.40;;
64210;SDS011;50528;48.514;14.394;2023-03-23T02:14:40;15.60;;;9.20;;
64210;SDS011;50528;48.514;14.394;2023-03-23T02:15:12;15.70;;;9.10;;
64210;SDS011;50528;48.514;14.394;2023-03-23T02:15:49;15.90;;;8.90;;
64210;SDS011;50528;48.514;14.394;2023-03-23T02:20:44;15.20;;;8.40;;
64210;SDS011;50528;48.514;14.394;2023-03-23T02:27:08;15.50;;;8.60;;
64210;SDS011;50528;48.514;14.394;2023-03-23T02:29:46;13.40;;;8.50;;
64210;SDS011;50528;48.514;14.394;2023-03-23T02:33:53;16.50;;;8.00;;
64210;SDS011;50528;48.514;14.394;2023-03-23T02:34:31;14.00;;;8.20;;
64210;SDS011;50528;48.514;14.394;2023-03-23T02:35:15;13.80;;;8.30;;
64210;SDS011;50528;48.514;14.394;2023-03-23T02:36:44;14.50;;;8.00;;
64210;SDS011;50528;48.514;14.394;2023-03-23T02:37:31;16.50;;;8.50;;
64210;SDS011;50528;48.514;14.394;2023-03-23T02:38:21;14.10;;;8.40;;
64210;SDS011;50528;48.514;14.394;2023-03-23T02:39:39;12.70;;;8.40;;
64210;SDS011;50528;48.514;14.394;2023-03-23T02:40:18;14.70;;;8.70;;
64210;SDS011;50528;48.514;14.394;2023-03-23T02:40:55;14.60;;;8.10;;
64210;SDS011;50528;48.514;14.394;2023-03-23T02:41:35;14.00;;;8.70;;
64210;SDS011;50528;48.514;14.394;2023-03-23T02:42:13;13.40;;;8.20;;
64210;SDS011;50528;48.514;14.394;2023-03-23T02:42:51;13.10;;;8.20;;
64210;SDS011;50528;48.514;14.394;2023-03-23T02:43:30;14.40;;;8.70;;
64210;SDS011;50528;48.514;14.394;2023-03-23T02:44:08;17.00;;;8.50;;
64210;SDS011;50528;48.514;14.394;2023-03-23T02:44:43;14.10;;;8.30;;
64210;SDS011;50528;48.514;14.394;2023-03-23T02:45:18;16.90;;;9.20;;
64210;SDS011;50528;48.514;14.394;2023-03-23T02:45:54;15.50;;;8.90;;
64210;SDS011;50528;48.514;14.394;2023-03-23T02:46:29;14.40;;;8.70;;
64210;SDS011;50528;48.514;14.394;2023-03-23T02:47:04;15.30;;;8.60;;
64210;SDS011;50528;48.514;14.394;2023-03-23T02:47:41;17.90;;;9.00;;
64210;SDS011;50528;48.514;14.394;2023-03-23T02:48:15;15.20;;;8.70;;
64210;SDS011;50528;48.514;14.394;2023-03-23T02:48:51;15.60;;;8.80;;
64210;SDS011;50528;48.514;14.394;2023-03-23T02:51:18;13.60;;;8.50;;
64210;SDS011;50528;48.514;14.394;2023-03-23T02:51:52;14.80;;;9.10;;
64210;SDS011;50528;48.514;14.394;2023-03-23T02:52:28;17.40;;;9.40;;
64210;SDS011;50528;48.514;14.394;2023-03-23T02:53:02;16.10;;;8.90;;
64210;SDS011;50528;48.514;14.394;2023-03-23T02:53:40;16.10;;;9.50;;
64210;SDS011;50528;48.514;14.394;2023-03-23T02:54:15;18.20;;;9.50;;
64210;SDS011;50528;48.514;14.394;2023-03-23T02:54:50;18.60;;;9.60;;
64210;SDS011;50528;48.514;14.394;2023-03-23T02:55:24;18.40;;;9.40;;
64210;SDS011;50528;48.514;14.394;2023-03-23T02:56:00;18.80;;;9.30;;
64210;SDS011;50528;48.514;14.394;2023-03-23T02:56:34;15.50;;;9.80;;
64210;SDS011;50528;48.514;14.394;2023-03-23T02:57:08;15.80;;;9.20;;
64210;SDS011;50528;48.514;14.394;2023-03-23T02:57:43;15.30;;;9.40;;
64210;SDS011;50528;48.514;14.394;2023-03-23T02:58:18;14.10;;;9.00;;
64210;SDS011;50528;48.514;14.394;2023-03-23T02:58:51;14.70;;;9.30;;
64210;SDS011;50528;48.514;14.394;2023-03-23T02:59:23;14.80;;;9.10;;
64210;SDS011;50528;48.514;14.394;2023-03-23T02:59:55;15.10;;;9.00;;
64210;SDS011;50528;48.514;14.394;2023-03-23T03:00:27;13.70;;;9.10;;
64210;SDS011;50528;48.514;14.394;2023-03-23T03:01:12;18.70;;;9.10;;
64210;SDS011;50528;48.514;14.394;2023-03-23T03:02:03;14.50;;;8.90;;
64210;SDS011;50528;48.514;14.394;2023-03-23T03:02:55;14.60;;;8.50;;
64210;SDS011;50528;48.514;14.394;2023-03-23T03:03:29;13.70;;;8.60;;
64210;SDS011;50528;48.514;14.394;2023-03-23T03:04:14;15.50;;;9.10;;
64210;SDS011;50528;48.514;14.394;2023-03-23T03:04:55;18.70;;;9.70;;
64210;SDS011;50528;48.514;14.394;2023-03-23T03:05:38;18.40;;;9.90;;
64210;SDS011;50528;48.514;14.394;2023-03-23T03:06:27;20.00;;;10.00;;
64210;SDS011;50528;48.514;14.394;2023-03-23T03:07:28;17.80;;;9.60;;
64210;SDS011;50528;48.514;14.394;2023-03-23T03:08:58;16.70;;;9.50;;
64210;SDS011;50528;48.514;14.394;2023-03-23T03:11:29;15.40;;;8.30;;
64210;SDS011;50528;48.514;14.394;2023-03-23T03:12:11;15.30;;;9.00;;
64210;SDS011;50528;48.514;14.394;2023-03-23T03:14:46;16.30;;;8.60;;
64210;SDS011;50528;48.514;14.394;2023-03-23T03:15:26;16.50;;;8.80;;
64210;SDS011;50528;48.514;14.394;2023-03-23T03:16:24;18.70;;;8.60;;
64210;SDS011;50528;48.514;14.394;2023-03-23T03:17:01;16.80;;;8.90;;
64210;SDS011;50528;48.514;14.394;2023-03-23T03:17:41;17.30;;;9.80;;
64210;SDS011;50528;48.514;14.394;2023-03-23T03:18:27;20.30;;;10.00;;
64210;SDS011;50528;48.514;14.394;2023-03-23T03:19:48;16.30;;;8.80;;
64210;SDS011;50528;48.514;14.394;2023-03-23T03:20:23;16.00;;;8.20;;
64210;SDS011;50528;48.514;14.394;2023-03-23T03:20:59;14.70;;;8.60;;
64210;SDS011;50528;48.514;14.394;2023-03-23T03:21:37;14.90;;;8.90;;
64210;SDS011;50528;48.514;14.394;2023-03-23T03:22:13;15.40;;;8.40;;
64210;SDS011;50528;48.514;14.394;2023-03-23T03:22:47;14.80;;;8.70;;
64210;SDS011;50528;48.514;14.394;2023-03-23T03:23:20;16.00;;;8.80;;
64210;SDS011;50528;48.514;14.394;2023-03-23T03:23:55;15.80;;;8.90;;
64210;SDS011;50528;48.514;14.394;2023-03-23T03:24:32;15.60;;;8.90;;
64210;SDS011;50528;48.514;14.394;2023-03-23T03:25:10;14.70;;;9.00;;
64210;SDS011;50528;48.514;14.394;2023-03-23T03:25:45;17.30;;;9.90;;
64210;SDS011;50528;48.514;14.394;2023-03-23T03:26:22;17.70;;;9.60;;
64210;SDS011;50528;48.514;14.394;2023-03-23T03:27:00;18.30;;;9.10;;
64210;SDS011;50528;48.514;14.394;2023-03-23T03:27:43;15.10;;;9.10;;
64210;SDS011;50528;48.514;14.394;2023-03-23T03:28:23;16.20;;;9.50;;
64210;SDS011;50528;48.514;14.394;2023-03-23T03:28:58;18.70;;;9.80;;
64210;SDS011;50528;48.514;14.394;2023-03-23T03:29:35;16.80;;;9.50;;
64210;SDS011;50528;48.514;14.394;2023-03-23T03:30:57;15.20;;;8.10;;
64210;SDS011;50528;48.514;14.394;2023-03-23T03:31:38;17.00;;;8.50;;
64210;SDS011;50528;48.514;14.394;2023-03-23T03:32:18;17.20;;;9.90;;
64210;SDS011;50528;48.514;14.394;2023-03-23T03:32:54;18.10;;;9.90;;
64210;SDS011;50528;48.514;14.394;2023-03-23T03:33:27;17.50;;;9.40;;
64210;SDS011;50528;48.514;14.394;2023-03-23T03:34:02;17.20;;;9.20;;
64210;SDS011;50528;48.514;14.394;2023-03-23T03:34:40;14.50;;;9.20;;
64210;SDS011;50528;48.514;14.394;2023-03-23T03:35:13;15.40;;;9.40;;
64210;SDS011;50528;48.514;14.394;2023-03-23T03:35:46;15.10;;;9.00;;
64210;SDS011;50528;48.514;14.394;2023-03-23T03:36:26;15.30;;;9.30;;
64210;SDS011;50528;48.514;14.394;2023-03-23T03:37:07;15.80;;;8.90;;
64210;SDS011;50528;48.514;14.394;2023-03-23T03:37:39;16.10;;;8.90;;
64210;SDS011;50528;48.514;14.394;2023-03-23T03:38:12;15.90;;;9.00;;
64210;SDS011;50528;48.514;14.394;2023-03-23T03:38:46;16.30;;;9.70;;
64210;SDS011;50528;48.514;14.394;2023-03-23T03:39:20;15.30;;;8.90;;
64210;SDS011;50528;48.514;14.394;2023-03-23T03:39:53;18.00;;;9.10;;
64210;SDS011;50528;48.514;14.394;2023-03-23T03:40:28;13.40;;;8.20;;
64210;SDS011;50528;48.514;14.394;2023-03-23T03:41:01;14.60;;;8.90;;
64210;SDS011;50528;48.514;14.394;2023-03-23T03:41:36;15.00;;;9.30;;
64210;SDS011;50528;48.514;14.394;2023-03-23T03:42:10;15.80;;;9.30;;
64210;SDS011;50528;48.514;14.394;2023-03-23T03:42:43;15.80;;;9.30;;
64210;SDS011;50528;48.514;14.394;2023-03-23T03:43:17;19.60;;;9.40;;
64210;SDS011;50528;48.514;14.394;2023-03-23T03:43:49;22.80;;;9.10;;
64210;SDS011;50528;48.514;14.394;2023-03-23T03:44:24;17.70;;;9.50;;
64210;SDS011;50528;48.514;14.394;2023-03-23T03:44:57;14.40;;;8.60;;
64210;SDS011;50528;48.514;14.394;2023-03-23T03:45:29;16.60;;;8.70;;
64210;SDS011;50528;48.514;14.394;2023-03-23T03:46:02;14.50;;;8.70;;
64210;SDS011;50528;48.514;14.394;2023-03-23T03:46:35;14.20;;;8.60;;
64210;SDS011;50528;48.514;14.394;2023-03-23T03:47:08;14.90;;;8.80;;
64210;SDS011;50528;48.514;14.394;2023-03-23T03:47:40;15.60;;;8.50;;
64210;SDS011;50528;48.514;14.394;2023-03-23T03:48:13;16.20;;;8.80;;
64210;SDS011;50528;48.514;14.394;2023-03-23T03:48:46;15.40;;;8.50;;
64210;SDS011;50528;48.514;14.394;2023-03-23T03:49:18;17.10;;;9.20;;
64210;SDS011;50528;48.514;14.394;2023-03-23T03:49:51;18.00;;;8.90;;
64210;SDS011;50528;48.514;14.394;2023-03-23T03:50:23;17.30;;;9.50;;
64210;SDS011;50528;48.514;14.394;2023-03-23T03:50:56;15.20;;;8.70;;
64210;SDS011;50528;48.514;14.394;2023-03-23T03:51:29;18.80;;;9.20;;
64210;SDS011;50528;48.514;14.394;2023-03-23T03:52:02;18.20;;;9.50;;
64210;SDS011;50528;48.514;14.394;2023-03-23T03:52:46;14.70;;;8.60;;
64210;SDS011;50528;48.514;14.394;2023-03-23T03:53:19;15.40;;;9.00;;
64210;SDS011;50528;48.514;14.394;2023-03-23T03:53:51;15.10;;;8.90;;
64210;SDS011;50528;48.514;14.394;2023-03-23T03:54:24;15.20;;;9.40;;
64210;SDS011;50528;48.514;14.394;2023-03-23T03:54:56;17.60;;;9.40;;
64210;SDS011;50528;48.514;14.394;2023-03-23T03:55:29;17.10;;;9.80;;